createdAt,value
2022-09-09T00:01:15.210Z,100221.97
2022-09-09T00:03:49.291Z,100201.75
2022-09-09T00:06:36.422Z,100203.41
2022-09-09T00:09:13.926Z,100194.53
2022-09-09T00:11:52.869Z,100193.78
2022-09-09T00:14:49.103Z,100199.53
2022-09-09T00:17:34.231Z,100202.41
2022-09-09T00:20:10.607Z,100200.00
2022-09-09T00:22:41.011Z,100210.97
2022-09-09T00:25:25.898Z,100195.72
2022-09-09T00:27:52.434Z,100197.31
2022-09-09T00:30:23.450Z,100201.38
2022-09-09T00:32:59.126Z,100189.31
2022-09-09T00:35:28.643Z,100178.41
2022-09-09T00:37:59.150Z,100180.06
2022-09-09T00:40:39.597Z,100177.28
2022-09-09T00:43:33.757Z,100182.13
2022-09-09T00:46:19.302Z,100176.84
2022-09-09T00:48:48.865Z,100176.47
2022-09-09T00:51:34.292Z,100177.31
2022-09-09T00:54:28.134Z,100177.75
2022-09-09T00:57:20.837Z,100178.97
2022-09-09T01:00:18.419Z,100181.38
2022-09-09T01:03:00.144Z,100173.34
2022-09-09T01:05:36.089Z,100163.28
2022-09-09T01:08:12.952Z,100163.28
2022-09-09T01:10:50.667Z,100167.34
2022-09-09T01:13:31.439Z,100176.22
2022-09-09T01:16:06.760Z,100178.19
2022-09-09T01:18:38.192Z,100174.16
2022-09-09T01:21:16.792Z,100174.53
2022-09-09T01:23:50.151Z,100172.91
2022-09-09T01:26:22.463Z,100176.94
2022-09-09T01:28:53.504Z,100164.41
2022-09-09T01:31:24.268Z,100173.69
2022-09-09T01:33:51.176Z,100164.00
2022-09-09T01:36:27.225Z,100168.03
2022-09-09T01:38:54.395Z,100168.44
2022-09-09T01:41:20.973Z,100169.63
2022-09-09T01:43:48.603Z,100171.28
2022-09-09T01:46:15.823Z,100172.53
2022-09-09T01:48:43.707Z,100172.13
2022-09-09T01:51:14.154Z,100168.09
2022-09-09T01:53:43.839Z,100169.31
2022-09-09T01:56:39.599Z,100170.97
2022-09-09T01:59:25.448Z,100160.81
2022-09-09T02:02:19.134Z,100168.50
2022-09-09T02:04:49.459Z,100162.44
2022-09-09T02:07:42.229Z,100160.06
2022-09-09T02:10:18.569Z,100165.31
2022-09-09T02:12:49.791Z,100168.50
2022-09-09T02:15:33.818Z,100169.34
2022-09-09T02:18:04.925Z,100166.91
2022-09-09T02:20:35.179Z,100156.84
2022-09-09T02:23:03.668Z,100166.09
2022-09-09T02:25:31.312Z,100167.34
2022-09-09T02:28:01.262Z,100168.94
2022-09-09T02:30:30.987Z,100172.56
2022-09-09T02:32:59.822Z,100166.47
2022-09-09T02:35:29.251Z,100171.28
2022-09-09T02:38:00.441Z,100178.53
2022-09-09T02:40:27.033Z,100174.09
2022-09-09T02:42:55.874Z,100168.00
2022-09-09T02:45:29.707Z,100171.63
2022-09-09T02:48:20.964Z,100167.56
2022-09-09T02:51:13.644Z,100170.38
2022-09-09T02:54:14.463Z,100169.13
2022-09-09T02:56:46.949Z,100166.72
2022-09-09T02:59:13.840Z,100171.94
2022-09-09T03:01:41.138Z,100175.56
2022-09-09T03:04:07.671Z,100169.91
2022-09-09T03:06:34.481Z,100171.94
2022-09-09T03:09:02.755Z,100177.13
2022-09-09T03:11:29.619Z,100174.31
2022-09-09T03:13:57.075Z,100177.53
2022-09-09T03:16:24.506Z,100166.25
2022-09-09T03:18:51.444Z,100177.47
2022-09-09T03:21:17.925Z,100173.44
2022-09-09T03:23:45.906Z,100165.78
2022-09-09T03:26:12.416Z,100171.41
2022-09-09T03:28:38.888Z,100174.25
2022-09-09T03:31:06.592Z,100177.47
2022-09-09T03:33:33.066Z,100178.69
2022-09-09T03:35:59.543Z,100177.09
2022-09-09T03:38:26.566Z,100167.03
2022-09-09T03:40:56.519Z,100169.88
2022-09-09T03:43:24.151Z,100167.03
2022-09-09T03:45:50.929Z,100165.00
2022-09-09T03:48:18.515Z,100166.59
2022-09-09T03:50:50.148Z,100154.94
2022-09-09T03:53:18.332Z,100159.72
2022-09-09T03:55:49.179Z,100157.69
2022-09-09T03:58:16.865Z,100154.47
2022-09-09T04:00:45.993Z,100150.41
2022-09-09T04:03:13.116Z,100154.44
2022-09-09T04:05:43.358Z,100151.22
2022-09-09T04:08:10.008Z,100158.84
2022-09-09T04:10:38.176Z,100157.63
2022-09-09T04:13:05.466Z,100159.66
2022-09-09T04:15:32.518Z,100162.84
2022-09-09T04:17:59.071Z,100163.63
2022-09-09T04:20:25.622Z,100170.09
2022-09-09T04:22:52.088Z,100163.25
2022-09-09T04:25:18.571Z,100165.63
2022-09-09T04:27:45.169Z,100166.44
2022-09-09T04:30:13.211Z,100172.06
2022-09-09T04:32:39.697Z,100170.06
2022-09-09T04:35:06.348Z,100170.06
2022-09-09T04:37:32.859Z,100176.94
2022-09-09T04:40:00.448Z,100170.47
2022-09-09T04:42:27.036Z,100173.31
2022-09-09T04:44:53.490Z,100175.34
2022-09-09T04:47:19.951Z,100169.28
2022-09-09T04:49:46.632Z,100170.53
2022-09-09T04:52:13.364Z,100164.88
2022-09-09T04:54:39.955Z,100170.53
2022-09-09T04:57:06.431Z,100168.50
2022-09-09T04:59:32.882Z,100170.53
2022-09-09T05:02:02.013Z,100183.41
2022-09-09T05:04:29.764Z,100170.53
2022-09-09T05:06:56.896Z,100174.94
2022-09-09T05:09:23.470Z,100165.25
2022-09-09T05:11:49.928Z,100172.50
2022-09-09T05:14:16.459Z,100168.47
2022-09-09T05:16:45.383Z,100174.09
2022-09-09T05:19:12.661Z,100179.31
2022-09-09T05:21:39.348Z,100166.00
2022-09-09T05:24:05.909Z,100169.22
2022-09-09T05:26:33.417Z,100169.56
2022-09-09T05:29:01.392Z,100162.69
2022-09-09T05:31:29.358Z,100173.59
2022-09-09T05:33:55.895Z,100166.72
2022-09-09T05:36:23.579Z,100166.72
2022-09-09T05:38:50.943Z,100178.81
2022-09-09T05:41:18.502Z,100174.41
2022-09-09T05:43:46.564Z,100176.44
2022-09-09T05:46:15.268Z,100181.63
2022-09-09T05:48:53.162Z,100179.25
2022-09-09T05:51:22.769Z,100175.19
2022-09-09T05:53:49.850Z,100175.56
2022-09-09T05:56:26.174Z,100176.00
2022-09-09T05:58:54.925Z,100173.13
2022-09-09T06:01:33.717Z,100177.59
2022-09-09T06:04:00.605Z,100171.91
2022-09-09T06:06:31.152Z,100178.34
2022-09-09T06:08:59.126Z,100177.13
2022-09-09T06:11:33.594Z,100173.13
2022-09-09T06:14:00.704Z,100180.75
2022-09-09T06:16:28.915Z,100179.94
2022-09-09T06:18:57.393Z,100180.75
2022-09-09T06:21:27.224Z,100187.22
2022-09-09T06:23:57.812Z,100190.84
2022-09-09T06:26:37.973Z,100187.56
2022-09-09T06:29:05.787Z,100185.06
2022-09-09T06:31:35.481Z,100179.81
2022-09-09T06:34:03.091Z,100180.19
2022-09-09T06:36:32.187Z,100188.22
2022-09-09T06:38:59.222Z,100183.78
2022-09-09T06:41:29.515Z,100181.34
2022-09-09T06:43:59.380Z,100184.13
2022-09-09T06:46:28.964Z,100188.50
2022-09-09T06:48:57.059Z,100188.81
2022-09-09T06:51:24.956Z,100192.41
2022-09-09T06:53:54.550Z,100191.13
2022-09-09T06:56:32.696Z,100195.94
2022-09-09T06:59:03.504Z,100192.63
2022-09-09T07:01:32.789Z,100201.81
2022-09-09T07:04:00.912Z,100201.78
2022-09-09T07:06:29.993Z,100202.16
2022-09-09T07:09:01.986Z,100200.94
2022-09-09T07:11:31.346Z,100198.06
2022-09-09T07:13:59.934Z,100202.84
2022-09-09T07:16:26.747Z,100210.03
2022-09-09T07:18:53.685Z,100211.16
2022-09-09T07:21:21.933Z,100203.84
2022-09-09T07:23:48.442Z,100206.63
2022-09-09T07:26:18.123Z,100197.25
2022-09-09T07:28:44.591Z,100205.69
2022-09-09T07:31:17.537Z,100210.03
2022-09-09T07:33:45.404Z,100212.75
2022-09-09T07:36:24.974Z,100209.13
2022-09-09T07:38:54.310Z,100200.56
2022-09-09T07:41:29.666Z,100202.22
2022-09-09T07:43:56.144Z,100215.53
2022-09-09T07:46:25.404Z,100214.34
2022-09-09T07:48:56.936Z,100218.47
2022-09-09T07:51:29.287Z,100218.47
2022-09-09T07:53:59.036Z,100218.47
2022-09-09T07:56:27.087Z,100217.25
2022-09-09T07:58:55.674Z,100224.00
2022-09-09T08:01:22.017Z,100212.44
2022-09-09T08:03:56.711Z,100224.16
2022-09-09T08:06:23.353Z,100216.09
2022-09-09T08:08:52.467Z,100233.91
2022-09-09T08:11:19.607Z,100231.00
2022-09-09T08:13:48.064Z,100235.38
2022-09-09T08:16:19.148Z,100227.84
2022-09-09T08:18:45.765Z,100223.88
2022-09-09T08:21:15.758Z,100226.81
2022-09-09T08:23:43.658Z,100219.19
2022-09-09T08:26:16.122Z,100221.78
2022-09-09T08:28:43.606Z,100224.38
2022-09-09T08:31:32.423Z,100214.94
2022-09-09T08:34:04.469Z,100226.94
2022-09-09T08:36:36.911Z,100230.13
2022-09-09T08:39:06.050Z,100229.16
2022-09-09T08:41:44.572Z,100232.25
2022-09-09T08:44:32.020Z,100226.03
2022-09-09T08:47:34.102Z,100231.63
2022-09-09T08:50:07.526Z,100238.09
2022-09-09T08:53:02.617Z,100235.44
2022-09-09T08:55:45.622Z,100226.66
2022-09-09T08:58:25.871Z,100228.06
2022-09-09T09:00:55.332Z,100233.88
2022-09-09T09:03:40.382Z,100240.09
2022-09-09T09:06:28.136Z,100233.69
2022-09-09T09:09:20.615Z,100229.59
2022-09-09T09:11:49.562Z,100227.47
2022-09-09T09:14:26.294Z,100240.50
2022-09-09T09:17:00.398Z,100234.03
2022-09-09T09:19:29.532Z,100231.44
2022-09-09T09:22:18.999Z,100235.44
2022-09-09T09:25:06.105Z,100239.72
2022-09-09T09:27:46.309Z,100237.03
2022-09-09T09:30:29.014Z,100229.91
2022-09-09T09:33:07.527Z,100236.53
2022-09-09T09:35:38.579Z,100233.88
2022-09-09T09:41:07.620Z,100228.50
2022-09-09T09:43:36.749Z,100231.13
2022-09-09T09:46:20.218Z,100220.03
2022-09-09T09:48:57.971Z,100223.81
2022-09-09T09:51:26.043Z,100219.72
2022-09-09T09:53:54.797Z,100211.53
2022-09-09T09:56:33.462Z,100214.13
2022-09-09T09:59:00.024Z,100223.44
2022-09-09T10:01:30.623Z,100219.13
2022-09-09T10:04:17.373Z,100219.81
2022-09-09T10:06:43.895Z,100223.22
2022-09-09T10:09:29.495Z,100223.66
2022-09-09T10:12:07.962Z,100217.88
2022-09-09T10:14:59.934Z,100211.84
2022-09-09T10:18:05.044Z,100213.06
2022-09-09T10:20:38.596Z,100216.16
2022-09-09T10:23:38.271Z,100202.03
2022-09-09T10:26:22.980Z,100210.59
2022-09-09T10:29:09.740Z,100214.34
2022-09-09T10:31:45.196Z,100217.97
2022-09-09T10:34:32.463Z,100206.38
2022-09-09T10:36:59.517Z,100208.16
2022-09-09T10:39:40.728Z,100200.44
2022-09-09T10:42:13.319Z,100206.00
2022-09-09T10:44:39.833Z,100195.75
2022-09-09T10:47:17.109Z,100206.00
2022-09-09T10:50:12.924Z,100199.09
2022-09-09T10:52:39.324Z,100198.50
2022-09-09T10:55:20.847Z,100192.91
2022-09-09T10:57:55.117Z,100193.13
2022-09-09T11:00:32.238Z,100194.28
2022-09-09T11:03:03.174Z,100192.44
2022-09-09T11:05:42.253Z,100192.78
2022-09-09T11:08:18.792Z,100189.03
2022-09-09T11:10:57.724Z,100191.78
2022-09-09T11:13:38.438Z,100184.34
2022-09-09T11:16:39.438Z,100194.03
2022-09-09T11:19:18.602Z,100191.06
2022-09-09T11:21:48.387Z,100186.50
2022-09-09T11:24:30.472Z,100184.13
2022-09-09T11:27:04.047Z,100186.72
2022-09-09T11:30:04.170Z,100190.34
2022-09-09T11:33:15.545Z,100196.25
2022-09-09T11:36:04.436Z,100205.84
2022-09-09T11:38:46.774Z,100197.72
2022-09-09T11:41:20.869Z,100194.09
2022-09-09T11:43:54.533Z,100203.56
2022-09-09T11:46:34.676Z,100192.16
2022-09-09T11:49:04.575Z,100200.72
2022-09-09T11:51:33.450Z,100189.66
2022-09-09T11:54:03.669Z,100187.13
2022-09-09T11:56:45.581Z,100183.47
2022-09-09T11:59:25.561Z,100187.00
2022-09-09T12:02:03.203Z,100186.41
2022-09-09T12:04:34.112Z,100181.84
2022-09-09T12:07:09.848Z,100180.91
2022-09-09T12:09:53.688Z,100171.25
2022-09-09T12:12:23.214Z,100181.69
2022-09-09T12:14:58.821Z,100181.84
2022-09-09T12:17:27.103Z,100176.16
2022-09-09T12:20:09.599Z,100183.56
2022-09-09T12:22:44.391Z,100177.72
2022-09-09T12:25:41.753Z,100179.59
2022-09-09T12:28:25.838Z,100186.09
2022-09-09T12:31:29.587Z,100179.59
2022-09-09T12:33:56.059Z,100180.47
2022-09-09T12:36:31.111Z,100180.31
2022-09-09T12:39:11.777Z,100191.59
2022-09-09T12:41:38.291Z,100187.81
2022-09-09T12:44:09.865Z,100182.25
2022-09-09T12:46:43.152Z,100182.84
2022-09-09T12:49:34.971Z,100187.06
2022-09-09T12:52:08.196Z,100182.66
2022-09-09T12:54:37.459Z,100190.84
2022-09-09T12:57:05.457Z,100190.19
2022-09-09T12:59:40.353Z,100188.84
2022-09-09T13:02:20.577Z,100202.22
2022-09-09T13:04:47.934Z,100205.28
2022-09-09T13:07:17.008Z,100227.34
2022-09-09T13:09:45.482Z,100238.47
2022-09-09T13:12:21.934Z,100234.81
2022-09-09T13:14:52.168Z,100225.44
2022-09-09T13:17:29.912Z,100209.31
2022-09-09T13:19:57.410Z,100208.78
2022-09-09T13:22:38.473Z,100198.22
2022-09-09T13:25:22.637Z,100190.97
2022-09-09T13:28:04.119Z,100188.84
2022-09-09T13:30:41.924Z,100188.25
2022-09-09T13:33:15.500Z,100177.41
2022-09-09T13:35:48.015Z,100179.88
2022-09-09T13:38:18.395Z,100174.63
2022-09-09T13:40:58.611Z,100174.72
2022-09-09T13:43:27.039Z,100176.34
2022-09-09T13:45:57.314Z,100179.28
2022-09-09T13:48:24.690Z,100180.53
2022-09-09T13:51:04.118Z,100183.06
2022-09-09T13:53:31.492Z,100184.25
2022-09-09T13:55:59.262Z,100188.31
2022-09-09T13:58:27.406Z,100175.72
2022-09-09T14:00:54.954Z,100172.78
2022-09-09T14:03:22.125Z,100171.47
2022-09-09T14:05:48.823Z,100172.09
2022-09-09T14:08:25.068Z,100178.38
2022-09-09T14:10:52.294Z,100171.53
2022-09-09T14:13:18.911Z,100166.34
2022-09-09T14:15:45.417Z,100175.81
2022-09-09T14:18:14.459Z,100179.28
2022-09-09T14:20:41.311Z,100169.75
2022-09-09T14:23:12.167Z,100177.38
2022-09-09T14:25:41.693Z,100173.97
2022-09-09T14:28:10.962Z,100164.13
2022-09-09T14:30:40.417Z,100164.00
2022-09-09T14:33:09.367Z,100177.00
2022-09-09T14:35:36.197Z,100189.97
2022-09-09T14:38:03.697Z,100187.56
2022-09-09T14:40:30.520Z,100172.66
2022-09-09T14:42:57.460Z,100182.50
2022-09-09T14:45:25.854Z,100179.41
2022-09-09T14:47:52.930Z,100183.63
2022-09-09T14:50:20.577Z,100182.53
2022-09-09T14:52:47.594Z,100183.91
2022-09-09T14:55:14.587Z,100177.97
2022-09-09T14:57:41.260Z,100178.41
2022-09-09T15:00:09.637Z,100171.94
2022-09-09T15:02:36.277Z,100177.97
2022-09-09T15:05:02.894Z,100176.28
2022-09-09T15:07:29.370Z,100174.94
2022-09-09T15:09:56.282Z,100180.50
2022-09-09T15:12:22.774Z,100177.09
2022-09-09T15:14:49.430Z,100169.66
2022-09-09T15:17:15.906Z,100171.16
2022-09-09T15:19:43.069Z,100177.53
2022-09-09T15:22:09.998Z,100173.78
2022-09-09T15:24:36.496Z,100185.16
2022-09-09T15:27:03.088Z,100173.00
2022-09-09T15:29:29.661Z,100176.72
2022-09-09T15:31:56.490Z,100195.09
2022-09-09T15:34:23.292Z,100185.53
2022-09-09T15:36:49.747Z,100186.09
2022-09-09T15:39:18.287Z,100188.69
2022-09-09T15:41:45.442Z,100182.66
2022-09-09T15:44:15.539Z,100177.78
2022-09-09T15:47:00.548Z,100187.28
2022-09-09T15:49:27.388Z,100190.13
2022-09-09T15:51:56.344Z,100193.88
2022-09-09T15:54:25.138Z,100201.69
2022-09-09T15:56:59.001Z,100218.03
2022-09-09T15:59:28.805Z,100225.50
2022-09-09T16:01:55.977Z,100230.56
2022-09-09T16:04:24.429Z,100253.56
2022-09-09T16:07:02.717Z,100258.78
2022-09-09T16:09:29.756Z,100266.72
2022-09-09T16:12:07.372Z,100266.44
2022-09-09T16:14:36.952Z,100259.91
2022-09-09T16:17:06.056Z,100262.84
2022-09-09T16:19:33.338Z,100264.06
2022-09-09T16:21:59.835Z,100258.44
2022-09-09T16:24:26.673Z,100259.56
2022-09-09T16:26:55.229Z,100269.25
2022-09-09T16:29:28.190Z,100258.59
2022-09-09T16:31:56.318Z,100257.19
2022-09-09T16:34:24.338Z,100248.94
2022-09-09T16:36:50.948Z,100235.34
2022-09-09T16:39:19.905Z,100238.72
2022-09-09T16:41:48.421Z,100245.72
2022-09-09T16:44:16.610Z,100238.88
2022-09-09T16:46:45.212Z,100241.69
2022-09-09T16:49:14.231Z,100239.34
2022-09-09T16:51:43.362Z,100244.25
2022-09-09T16:54:10.685Z,100244.31
2022-09-09T16:56:42.154Z,100232.63
2022-09-09T16:59:12.390Z,100234.66
2022-09-09T17:01:41.839Z,100243.13
2022-09-09T17:04:14.694Z,100235.09
2022-09-09T17:06:42.378Z,100238.72
2022-09-09T17:09:11.597Z,100241.53
2022-09-09T17:11:39.542Z,100235.88
2022-09-09T17:14:10.243Z,100232.25
2022-09-09T17:16:37.749Z,100237.88
2022-09-09T17:19:05.241Z,100238.59
2022-09-09T17:21:33.213Z,100238.97
2022-09-09T17:24:00.732Z,100250.25
2022-09-09T17:26:30.120Z,100246.19
2022-09-09T17:28:59.888Z,100250.63
2022-09-09T17:31:28.561Z,100251.06
2022-09-09T17:33:55.877Z,100249.88
2022-09-09T17:36:24.850Z,100244.63
2022-09-09T17:38:52.866Z,100244.25
2022-09-09T17:41:26.519Z,100232.94
2022-09-09T17:43:53.474Z,100245.09
2022-09-09T17:46:25.925Z,100244.69
2022-09-09T17:48:57.184Z,100242.28
2022-09-09T17:51:28.299Z,100244.31
2022-09-09T17:53:59.300Z,100241.50
2022-09-09T17:56:29.158Z,100242.69
2022-09-09T17:58:55.739Z,100240.69
2022-09-09T18:01:28.357Z,100237.13
2022-09-09T18:03:57.463Z,100239.16
2022-09-09T18:06:29.514Z,100227.88
2022-09-09T18:08:58.860Z,100229.13
2022-09-09T18:11:28.544Z,100234.38
2022-09-09T18:13:57.896Z,100241.25
2022-09-09T18:16:26.791Z,100237.28
2022-09-09T18:18:55.815Z,100239.72
2022-09-09T18:21:23.476Z,100249.41
2022-09-09T18:23:52.121Z,100248.63
2022-09-09T18:26:21.779Z,100246.63
2022-09-09T18:28:53.272Z,100250.69
2022-09-09T18:31:23.489Z,100256.00
2022-09-09T18:33:51.647Z,100257.97
2022-09-09T18:36:20.773Z,100256.81
2022-09-09T18:38:47.678Z,100259.66
2022-09-09T18:41:18.965Z,100270.19
2022-09-09T18:43:45.554Z,100271.78
2022-09-09T18:46:12.829Z,100276.66
2022-09-09T18:48:39.684Z,100275.41
2022-09-09T18:51:08.770Z,100285.13
2022-09-09T18:53:35.986Z,100274.63
2022-09-09T18:56:08.388Z,100271.44
2022-09-09T18:58:36.148Z,100277.44
2022-09-09T19:01:06.724Z,100275.44
2022-09-09T19:03:35.560Z,100279.06
2022-09-09T19:06:05.076Z,100273.03
2022-09-09T19:08:34.601Z,100268.19
2022-09-09T19:11:02.578Z,100270.63
2022-09-09T19:13:29.305Z,100275.50
2022-09-09T19:15:55.829Z,100276.72
2022-09-09T19:18:23.720Z,100283.19
2022-09-09T19:20:50.258Z,100288.03
2022-09-09T19:23:16.743Z,100280.75
2022-09-09T19:25:43.231Z,100283.56
2022-09-09T19:28:09.817Z,100284.41
2022-09-09T19:30:36.428Z,100288.44
2022-09-09T19:33:04.384Z,100290.06
2022-09-09T19:35:31.435Z,100292.06
2022-09-09T19:37:59.513Z,100296.13
2022-09-09T19:40:26.926Z,100299.75
2022-09-09T19:42:53.951Z,100287.63
2022-09-09T19:45:20.507Z,100292.50
2022-09-09T19:47:47.165Z,100293.72
2022-09-09T19:50:13.654Z,100296.19
2022-09-09T19:52:40.487Z,100292.53
2022-09-09T19:55:07.208Z,100291.34
2022-09-09T19:57:34.211Z,100298.25
2022-09-09T20:00:00.931Z,100295.44
2022-09-09T20:02:28.810Z,100291.03
2022-09-09T20:04:55.423Z,100294.25
2022-09-09T20:07:21.911Z,100293.09
2022-09-09T20:09:48.367Z,100300.38
2022-09-09T20:12:15.007Z,100310.50
2022-09-09T20:14:41.766Z,100307.66
2022-09-09T20:17:10.181Z,100323.03
2022-09-09T20:19:36.784Z,100312.13
2022-09-09T20:22:03.272Z,100316.59
2022-09-09T20:24:29.756Z,100310.16
2022-09-09T20:26:56.435Z,100317.44
2022-09-09T20:29:22.999Z,100321.50
2022-09-09T20:31:49.471Z,100319.88
2022-09-09T20:34:21.779Z,100315.88
2022-09-09T20:36:49.039Z,100321.50
2022-09-09T20:39:18.147Z,100325.56
2022-09-09T20:41:46.277Z,100326.38
2022-09-09T20:44:19.212Z,100326.78
2022-09-09T20:46:48.245Z,100323.97
2022-09-09T20:49:17.214Z,100316.72
2022-09-09T20:51:44.544Z,100327.59
2022-09-09T20:54:17.133Z,100323.97
2022-09-09T20:56:45.139Z,100328.75
2022-09-09T20:59:14.202Z,100322.31
2022-09-09T21:01:42.181Z,100324.75
2022-09-09T21:04:09.784Z,100328.38
2022-09-09T21:06:37.072Z,100323.13
2022-09-09T21:09:03.800Z,100334.00
2022-09-09T21:11:30.360Z,100327.97
2022-09-09T21:13:56.918Z,100323.53
2022-09-09T21:16:23.467Z,100328.41
2022-09-09T21:18:50.471Z,100332.44
2022-09-09T21:21:21.202Z,100336.06
2022-09-09T21:23:48.869Z,100338.09
2022-09-09T21:26:15.414Z,100337.31
2022-09-09T21:28:41.886Z,100345.78
2022-09-09T21:31:16.374Z,100329.66
2022-09-09T21:33:43.188Z,100338.91
2022-09-09T21:36:11.366Z,100326.81
2022-09-09T21:38:40.320Z,100337.31
2022-09-09T21:41:15.475Z,100340.56
2022-09-09T21:43:44.241Z,100345.00
2022-09-09T21:46:14.311Z,100338.56
2022-09-09T21:48:40.946Z,100342.97
2022-09-09T21:51:14.411Z,100339.78
2022-09-09T21:53:41.241Z,100345.78
2022-09-09T21:56:10.884Z,100346.22
2022-09-09T21:58:37.723Z,100336.53
2022-09-09T22:01:16.427Z,100345.81
2022-09-09T22:03:43.823Z,100345.78
2022-09-09T22:06:13.848Z,100350.22
2022-09-09T22:08:40.959Z,100352.25
2022-09-09T22:11:13.936Z,100352.25
2022-09-09T22:13:40.870Z,100347.41
2022-09-09T22:16:12.324Z,100350.22
2022-09-09T22:18:39.135Z,100349.41
2022-09-09T22:21:17.909Z,100351.03
2022-09-09T22:23:47.713Z,100357.44
2022-09-09T22:26:15.122Z,100350.56
2022-09-09T22:28:41.589Z,100352.19
2022-09-09T22:31:08.115Z,100357.41
2022-09-09T22:33:35.069Z,100353.38
2022-09-09T22:36:01.801Z,100356.56
2022-09-09T22:38:28.267Z,100352.53
2022-09-09T22:40:54.937Z,100356.97
2022-09-09T22:43:22.778Z,100355.72
2022-09-09T22:45:50.179Z,100352.09
2022-09-09T22:48:16.977Z,100358.13
2022-09-09T22:50:44.241Z,100350.09
2022-09-09T22:53:14.413Z,100356.53
2022-09-09T22:55:41.277Z,100346.84
2022-09-09T22:58:07.943Z,100349.28
2022-09-09T23:00:35.204Z,100349.28
2022-09-09T23:03:01.714Z,100350.50
2022-09-09T23:05:28.405Z,100353.34
2022-09-09T23:07:58.287Z,100354.56
2022-09-09T23:10:25.539Z,100346.50
2022-09-09T23:12:52.407Z,100348.50
2022-09-09T23:15:19.870Z,100359.00
2022-09-09T23:17:46.441Z,100355.38
2022-09-09T23:20:12.989Z,100358.66
2022-09-09T23:22:40.504Z,100359.03
2022-09-09T23:25:07.850Z,100356.66
2022-09-09T23:27:37.325Z,100355.03
2022-09-09T23:30:07.037Z,100355.06
2022-09-09T23:32:33.640Z,100356.72
2022-09-09T23:35:00.349Z,100363.56
2022-09-09T23:37:26.831Z,100367.25
2022-09-09T23:39:54.410Z,100359.97
2022-09-09T23:42:20.891Z,100364.03
2022-09-09T23:44:47.534Z,100366.03
2022-09-09T23:47:14.633Z,100362.06
2022-09-09T23:49:41.154Z,100358.81
2022-09-09T23:52:07.644Z,100356.44
2022-09-09T23:54:34.921Z,100357.25
2022-09-09T23:57:03.074Z,100354.84
2022-09-09T23:59:30.924Z,100353.66
